Terminal Aerodrome Forecast
Issued by NWS Wilmington, OH

Current Version | Previous Version | Text Only | Print | Product List | Glossary Off
Versions: 1 2 3 4 5 6 7 8 9 10 11 12 13 14 15 16 17 18 19 20 21 22 23 24 25

000
FTUS41 KILN 312331
TAFCVG
TAF
KCVG 312331Z 0100/0206 23006KT P6SM VCTS BKN045CB
     FM010100 00000KT P6SM FEW050 SCT250
     FM010800 00000KT 4SM BR SCT250
      TEMPO 0110/0112 2SM BR
     FM011400 VRB04KT P6SM SCT025
     FM011800 26005KT P6SM BKN040
     FM020100 00000KT P6SM FEW050=

USA.gov is the U.S. government's official web portal to all federal, state and local government web resources and services.